Terminal Aerodrome Forecast
Issued by NWS

Home | Current Version | Previous Version | Text Only | Print | Product List | Glossary On
Versions: 1 2 3 4 5 6 7 8 9 10 11 12 13 14 15 16 17 18 19 20 21 22 23
000
FTUS43 KMQT 051430 AAC
TAFCMX
TAF AMD
KCMX 051430Z 0515/0612 15008KT P6SM SCT002
     FM051600 15005KT P6SM SCT060
     FM060300 15006KT P6SM BKN100
     FM060500 19007KT 6SM BR BKN130
     FM060700 19007KT 6SM BR VCSH BKN120=

USA.gov is the U.S. government's official web portal to all federal, state and local government web resources and services.